createdAt,value
2022-10-23T00:01:13.159Z,92.73
2022-10-23T00:03:42.444Z,92.69
2022-10-23T00:06:11.304Z,92.13
2022-10-23T00:08:39.648Z,91.62
2022-10-23T00:11:09.193Z,92.48
2022-10-23T00:13:37.516Z,92.27
2022-10-23T00:16:05.770Z,92.50
2022-10-23T00:18:34.500Z,92.15
2022-10-23T00:21:04.087Z,92.10
2022-10-23T00:23:32.109Z,91.70
2022-10-23T00:26:00.317Z,91.64
2022-10-23T00:28:28.360Z,92.09
2022-10-23T00:30:56.363Z,91.73
2022-10-23T00:33:24.357Z,91.77
2022-10-23T00:35:52.243Z,92.43
2022-10-23T00:38:21.670Z,92.50
2022-10-23T00:43:25.955Z,92.35
2022-10-23T00:45:54.137Z,92.21
2022-10-23T00:48:22.263Z,92.50
2022-10-23T00:50:51.207Z,93.15
2022-10-23T00:53:22.155Z,92.40
2022-10-23T00:55:54.874Z,92.02
2022-10-23T00:58:23.018Z,92.78
2022-10-23T01:00:53.103Z,92.28
2022-10-23T01:03:24.413Z,91.75
2022-10-23T01:05:59.792Z,91.63
2022-10-23T01:08:35.863Z,91.74
2022-10-23T01:11:11.457Z,92.09
2022-10-23T01:13:45.703Z,91.80
2022-10-23T01:16:20.002Z,92.34
2022-10-23T01:18:56.924Z,92.81
2022-10-23T01:21:32.312Z,93.24
2022-10-23T01:24:11.612Z,92.80
2022-10-23T01:26:56.606Z,92.94
2022-10-23T01:29:33.028Z,93.02
2022-10-23T01:32:10.955Z,92.45
2022-10-23T01:34:53.901Z,92.82
2022-10-23T01:37:30.303Z,92.96
2022-10-23T01:40:05.551Z,92.60
2022-10-23T01:42:40.718Z,92.61
2022-10-23T01:45:16.461Z,93.04
2022-10-23T01:47:46.228Z,92.95
2022-10-23T01:50:18.379Z,92.51
2022-10-23T01:52:48.951Z,92.17
2022-10-23T01:55:18.716Z,92.32
2022-10-23T01:57:48.066Z,92.48
2022-10-23T02:00:20.193Z,92.71
2022-10-23T02:02:55.726Z,92.05
2022-10-23T02:05:31.251Z,93.30
2022-10-23T02:08:01.549Z,93.17
2022-10-23T02:10:34.447Z,92.57
2022-10-23T02:13:06.621Z,92.34
2022-10-23T02:15:40.697Z,91.98
2022-10-23T02:18:16.551Z,92.60
2022-10-23T02:20:48.538Z,92.53
2022-10-23T02:23:22.336Z,92.12
2022-10-23T02:25:56.456Z,92.22
2022-10-23T02:28:28.927Z,92.74
2022-10-23T02:31:05.084Z,92.71
2022-10-23T02:33:35.736Z,92.98
2022-10-23T02:36:03.824Z,92.91
2022-10-23T02:38:35.292Z,92.93
2022-10-23T02:41:16.859Z,92.23
2022-10-23T02:43:54.959Z,93.55
2022-10-23T02:46:28.888Z,93.55
2022-10-23T02:49:09.757Z,92.73
2022-10-23T02:51:46.476Z,93.07
2022-10-23T02:54:21.594Z,93.16
2022-10-23T02:56:59.861Z,93.35
2022-10-23T02:59:42.591Z,93.18
2022-10-23T03:02:22.549Z,93.28
2022-10-23T03:04:52.362Z,93.26
2022-10-23T03:07:22.070Z,93.07
2022-10-23T03:09:50.018Z,93.29
2022-10-23T03:12:17.958Z,92.88
2022-10-23T03:14:45.891Z,92.69
2022-10-23T03:17:15.355Z,93.32
2022-10-23T03:19:47.454Z,93.80
2022-10-23T03:22:15.393Z,93.91
2022-10-23T03:24:43.508Z,93.45
2022-10-23T03:27:12.144Z,93.63
2022-10-23T03:29:40.102Z,93.96
2022-10-23T03:32:08.176Z,93.73
2022-10-23T03:34:37.454Z,93.65
2022-10-23T03:37:05.972Z,93.22
2022-10-23T03:39:33.819Z,94.07
2022-10-23T03:42:02.143Z,93.63
2022-10-23T03:44:31.422Z,93.32
2022-10-23T03:47:00.635Z,94.37
2022-10-23T03:49:28.623Z,95.07
2022-10-23T03:52:04.437Z,95.47
2022-10-23T03:54:33.838Z,94.72
2022-10-23T03:57:02.285Z,95.09
2022-10-23T03:59:30.708Z,94.91
2022-10-23T04:02:00.254Z,94.81
2022-10-23T04:04:28.510Z,95.03
2022-10-23T04:06:56.848Z,94.11
2022-10-23T04:09:26.401Z,94.46
2022-10-23T04:11:56.412Z,93.40
2022-10-23T04:14:28.584Z,93.61
2022-10-23T04:16:56.843Z,94.13
2022-10-23T04:19:25.169Z,93.53
2022-10-23T04:21:57.159Z,94.28
2022-10-23T04:24:27.425Z,94.23
2022-10-23T04:26:55.351Z,93.96
2022-10-23T04:29:24.585Z,94.37
2022-10-23T04:31:52.748Z,95.20
2022-10-23T04:34:20.779Z,94.75
2022-10-23T04:36:48.684Z,94.96
2022-10-23T04:39:16.616Z,94.96
2022-10-23T04:41:45.942Z,95.81
2022-10-23T04:44:13.839Z,96.11
2022-10-23T04:46:41.945Z,96.32
2022-10-23T04:49:10.964Z,96.42
2022-10-23T04:51:57.347Z,95.97
2022-10-23T04:54:51.522Z,96.13
2022-10-23T04:57:34.038Z,95.90
2022-10-23T05:00:07.214Z,95.96
2022-10-23T05:02:42.551Z,95.77
2022-10-23T05:05:11.705Z,95.93
2022-10-23T05:08:08.941Z,95.91
2022-10-23T05:10:59.182Z,95.14
2022-10-23T05:13:28.721Z,95.54
2022-10-23T05:15:59.840Z,95.44
2022-10-23T05:18:31.923Z,95.49
2022-10-23T05:21:04.009Z,95.16
2022-10-23T05:23:37.574Z,95.46
2022-10-23T05:26:06.089Z,95.33
2022-10-23T05:28:35.503Z,95.69
2022-10-23T05:31:06.203Z,95.39
2022-10-23T05:33:37.497Z,95.85
2022-10-23T05:36:07.242Z,95.83
2022-10-23T05:38:36.690Z,95.44
2022-10-23T05:41:12.819Z,95.66
2022-10-23T05:43:42.068Z,95.86
2022-10-23T05:46:29.050Z,95.48
2022-10-23T05:49:12.765Z,95.33
2022-10-23T05:52:15.818Z,96.02
2022-10-23T05:55:02.395Z,95.39
2022-10-23T05:57:46.008Z,95.66
2022-10-23T06:00:18.761Z,96.27
2022-10-23T06:02:54.930Z,95.86
2022-10-23T06:05:35.075Z,96.13
2022-10-23T06:08:17.342Z,96.03
2022-10-23T06:10:46.010Z,95.47
2022-10-23T06:13:13.968Z,95.89
2022-10-23T06:15:43.798Z,95.64
2022-10-23T06:18:23.307Z,95.85
2022-10-23T06:21:01.567Z,95.98
2022-10-23T06:23:31.612Z,95.89
2022-10-23T06:26:02.440Z,95.91
2022-10-23T06:28:38.274Z,95.51
2022-10-23T06:31:08.809Z,95.81
2022-10-23T06:33:36.979Z,95.67
2022-10-23T06:36:08.271Z,95.64
2022-10-23T06:38:40.316Z,96.00
2022-10-23T06:41:14.838Z,95.79
2022-10-23T06:43:44.648Z,96.54
2022-10-23T06:46:37.392Z,96.52
2022-10-23T06:49:34.491Z,96.94
2022-10-23T06:52:03.423Z,96.78
2022-10-23T06:54:32.164Z,96.96
2022-10-23T06:57:17.981Z,96.64
2022-10-23T06:59:47.905Z,97.76
2022-10-23T07:02:18.263Z,97.61
2022-10-23T07:04:46.208Z,97.46
2022-10-23T07:07:18.598Z,97.68
2022-10-23T07:09:49.734Z,98.02
2022-10-23T07:12:38.705Z,97.82
2022-10-23T07:15:25.032Z,98.00
2022-10-23T07:17:54.788Z,98.01
2022-10-23T07:20:24.176Z,98.44
2022-10-23T07:22:53.261Z,98.23
2022-10-23T07:25:28.302Z,98.52
2022-10-23T07:27:56.613Z,98.27
2022-10-23T07:30:26.661Z,97.42
2022-10-23T07:33:00.248Z,98.02
2022-10-23T07:35:56.631Z,98.31
2022-10-23T07:38:29.159Z,98.80
2022-10-23T07:40:59.255Z,98.44
2022-10-23T07:43:28.092Z,97.71
2022-10-23T07:45:56.472Z,97.19
2022-10-23T07:48:31.365Z,97.17
2022-10-23T07:51:01.752Z,97.09
2022-10-23T07:53:31.019Z,97.57
2022-10-23T07:56:13.944Z,97.09
2022-10-23T07:59:08.089Z,96.97
2022-10-23T08:01:39.066Z,96.52
2022-10-23T08:04:08.546Z,96.13
2022-10-23T08:06:42.149Z,96.15
2022-10-23T08:09:10.670Z,96.03
2022-10-23T08:11:41.294Z,94.30
2022-10-23T08:14:11.431Z,94.08
2022-10-23T08:16:40.764Z,93.50
2022-10-23T08:19:19.092Z,93.26
2022-10-23T08:21:48.805Z,92.44
2022-10-23T08:24:17.923Z,92.39
2022-10-23T08:26:50.979Z,93.69
2022-10-23T08:29:22.729Z,93.93
2022-10-23T08:31:53.634Z,94.31
2022-10-23T08:34:49.089Z,93.71
2022-10-23T08:37:17.780Z,92.83
2022-10-23T08:39:48.096Z,92.88
2022-10-23T08:42:25.898Z,93.62
2022-10-23T08:45:07.039Z,93.23
2022-10-23T08:47:43.295Z,92.68
2022-10-23T08:50:35.609Z,92.46
2022-10-23T08:53:10.376Z,91.23
2022-10-23T08:55:42.618Z,89.62
2022-10-23T08:58:16.458Z,88.46
2022-10-23T09:00:45.654Z,87.74
2022-10-23T09:03:14.603Z,86.73
2022-10-23T09:05:56.285Z,85.62
2022-10-23T09:08:36.852Z,86.74
2022-10-23T09:11:12.612Z,86.04
2022-10-23T09:14:21.904Z,85.10
2022-10-23T09:17:01.299Z,84.87
2022-10-23T09:19:30.458Z,83.90
2022-10-23T09:22:00.530Z,84.54
2022-10-23T09:24:31.705Z,83.99
2022-10-23T09:27:01.513Z,82.75
2022-10-23T09:29:32.980Z,80.22
2022-10-23T09:32:04.008Z,80.82
2022-10-23T09:34:35.451Z,81.19
2022-10-23T09:37:23.278Z,81.31
2022-10-23T09:40:03.823Z,81.55
2022-10-23T09:42:36.095Z,80.56
2022-10-23T09:45:21.079Z,80.73
2022-10-23T09:47:51.123Z,77.78
2022-10-23T09:50:22.006Z,77.95
2022-10-23T09:52:56.396Z,78.79
2022-10-23T09:55:26.951Z,78.56
2022-10-23T09:57:56.322Z,77.90
2022-10-23T10:00:26.448Z,79.06
2022-10-23T10:03:00.691Z,78.29
2022-10-23T10:06:00.624Z,75.49
2022-10-23T10:08:42.195Z,75.95
2022-10-23T10:11:17.524Z,75.46
2022-10-23T10:14:04.283Z,74.74
2022-10-23T10:16:43.874Z,74.81
2022-10-23T10:19:20.194Z,74.84
2022-10-23T10:21:57.543Z,75.52
2022-10-23T10:24:33.846Z,75.30
2022-10-23T10:27:11.936Z,75.66
2022-10-23T10:29:50.779Z,75.05
2022-10-23T10:32:32.831Z,76.07
2022-10-23T10:35:13.242Z,75.34
2022-10-23T10:37:58.320Z,74.48
2022-10-23T10:40:33.172Z,75.01
2022-10-23T10:43:24.499Z,73.56
2022-10-23T10:46:01.139Z,71.34
2022-10-23T10:48:49.974Z,71.41
2022-10-23T10:51:26.019Z,70.86
2022-10-23T10:54:11.490Z,72.09
2022-10-23T10:56:43.481Z,70.20
2022-10-23T10:59:18.107Z,70.57
2022-10-23T11:01:52.310Z,70.47
2022-10-23T11:04:32.681Z,69.38
2022-10-23T11:07:06.714Z,69.87
2022-10-23T11:09:34.718Z,70.51
2022-10-23T11:12:04.571Z,69.78
2022-10-23T11:14:35.262Z,69.40
2022-10-23T11:17:10.071Z,68.62
2022-10-23T11:19:44.927Z,67.76
2022-10-23T11:22:22.915Z,68.34
2022-10-23T11:25:36.290Z,68.49
2022-10-23T11:28:22.730Z,63.99
2022-10-23T11:31:10.909Z,66.30
2022-10-23T11:33:59.152Z,66.86
2022-10-23T11:36:43.214Z,66.62
2022-10-23T11:39:20.644Z,66.68
2022-10-23T11:41:53.954Z,66.65
2022-10-23T11:44:40.485Z,66.22
2022-10-23T11:47:37.993Z,67.68
2022-10-23T11:50:27.628Z,66.28
2022-10-23T11:53:15.882Z,67.17
2022-10-23T11:56:06.692Z,65.94
2022-10-23T11:58:53.571Z,65.37
2022-10-23T12:01:34.944Z,67.81
2022-10-23T12:04:09.795Z,67.66
2022-10-23T12:06:41.703Z,66.38
2022-10-23T12:09:25.654Z,66.82
2022-10-23T12:12:05.615Z,67.74
2022-10-23T12:14:38.522Z,67.63
2022-10-23T12:17:31.574Z,67.06
2022-10-23T12:20:15.672Z,67.11
2022-10-23T12:22:49.307Z,67.95
2022-10-23T12:25:20.918Z,66.77
2022-10-23T12:27:54.521Z,65.77
2022-10-23T12:30:24.674Z,67.20
2022-10-23T12:33:09.160Z,66.26
2022-10-23T12:35:59.423Z,66.79
2022-10-23T12:38:33.865Z,67.07
2022-10-23T12:41:12.026Z,67.22
2022-10-23T12:43:42.145Z,67.48
2022-10-23T12:46:27.739Z,67.67
2022-10-23T12:48:58.025Z,68.19
2022-10-23T12:51:28.059Z,67.88
2022-10-23T12:53:56.611Z,66.97
2022-10-23T12:56:26.073Z,67.64
2022-10-23T12:58:57.071Z,69.04
2022-10-23T13:01:27.300Z,66.70
2022-10-23T13:04:03.492Z,67.73
2022-10-23T13:06:31.875Z,68.05
2022-10-23T13:09:00.171Z,67.61
2022-10-23T13:11:38.099Z,68.66
2022-10-23T13:14:13.076Z,67.43
2022-10-23T13:16:41.234Z,69.01
2022-10-23T13:19:24.322Z,69.30
2022-10-23T13:21:52.362Z,69.29
2022-10-23T13:24:21.815Z,69.68
2022-10-23T13:26:49.964Z,70.55
2022-10-23T13:29:21.701Z,70.51
2022-10-23T13:31:50.220Z,68.34
2022-10-23T13:34:27.671Z,69.32
2022-10-23T13:37:00.989Z,70.50
2022-10-23T13:39:31.362Z,69.44
2022-10-23T13:42:10.841Z,69.15
2022-10-23T13:44:39.168Z,69.26
2022-10-23T13:47:12.495Z,68.63
2022-10-23T13:49:41.812Z,68.77
2022-10-23T13:52:12.033Z,69.08
2022-10-23T13:54:40.008Z,69.68
2022-10-23T13:57:13.900Z,69.75
2022-10-23T13:59:41.900Z,70.98
2022-10-23T14:02:22.313Z,69.72
2022-10-23T14:04:52.412Z,70.10
2022-10-23T14:07:20.500Z,71.69
2022-10-23T14:09:50.564Z,71.55
2022-10-23T14:12:18.769Z,71.65
2022-10-23T14:14:51.104Z,70.63
2022-10-23T14:17:19.076Z,71.42
2022-10-23T14:19:47.112Z,70.92
2022-10-23T14:22:16.572Z,71.18
2022-10-23T14:24:44.477Z,71.80
2022-10-23T14:27:12.531Z,73.37
2022-10-23T14:29:41.798Z,74.46
2022-10-23T14:32:09.738Z,75.53
2022-10-23T14:34:42.013Z,75.54
2022-10-23T14:37:09.931Z,75.94
2022-10-23T14:39:39.226Z,75.87
2022-10-23T14:42:07.287Z,77.49
2022-10-23T14:44:35.181Z,77.03
2022-10-23T14:47:03.226Z,77.46
2022-10-23T14:49:31.543Z,76.19
2022-10-23T14:51:59.582Z,75.70
2022-10-23T14:54:29.276Z,75.85
2022-10-23T14:56:58.735Z,75.71
2022-10-23T14:59:26.832Z,75.85
2022-10-23T15:01:54.801Z,75.17
2022-10-23T15:04:22.985Z,75.56
2022-10-23T15:06:50.978Z,75.32
2022-10-23T15:09:20.272Z,75.49
2022-10-23T15:11:48.354Z,74.74
2022-10-23T15:14:17.610Z,73.62
2022-10-23T15:16:45.508Z,73.28
2022-10-23T15:19:18.449Z,73.86
2022-10-23T15:21:47.200Z,73.46
2022-10-23T15:24:16.092Z,73.13
2022-10-23T15:26:44.504Z,73.41
2022-10-23T15:29:14.436Z,74.45
2022-10-23T15:31:50.445Z,74.59
2022-10-23T15:34:21.014Z,74.77
2022-10-23T15:36:49.591Z,75.32
2022-10-23T15:39:20.716Z,76.35
2022-10-23T15:41:52.308Z,76.58
2022-10-23T15:44:21.904Z,77.05
2022-10-23T15:46:51.937Z,77.42
2022-10-23T15:49:20.786Z,75.78
2022-10-23T15:51:48.601Z,75.19
2022-10-23T15:54:19.101Z,75.33
2022-10-23T15:56:48.430Z,75.25
2022-10-23T15:59:17.046Z,75.43
2022-10-23T16:01:45.107Z,76.61
2022-10-23T16:04:16.093Z,77.38
2022-10-23T16:06:44.126Z,78.56
2022-10-23T16:09:13.150Z,78.22
2022-10-23T16:11:42.813Z,78.12
2022-10-23T16:14:13.644Z,79.18
2022-10-23T16:16:44.167Z,79.34
2022-10-23T16:19:14.171Z,79.82
2022-10-23T16:21:42.988Z,80.24
2022-10-23T16:24:11.652Z,80.54
2022-10-23T16:26:41.386Z,80.43
2022-10-23T16:29:10.369Z,80.61
2022-10-23T16:31:38.357Z,80.41
2022-10-23T16:34:07.026Z,78.56
2022-10-23T16:36:39.048Z,78.72
2022-10-23T16:39:21.031Z,78.10
2022-10-23T16:42:07.974Z,78.21
2022-10-23T16:44:56.711Z,78.37
2022-10-23T16:47:24.690Z,78.78
2022-10-23T16:49:52.647Z,78.64
2022-10-23T16:52:22.023Z,78.50
2022-10-23T16:54:49.948Z,78.92
2022-10-23T16:57:17.939Z,79.29
2022-10-23T16:59:45.944Z,79.98
2022-10-23T17:02:14.770Z,80.04
2022-10-23T17:04:42.915Z,81.09
2022-10-23T17:07:13.118Z,81.01
2022-10-23T17:09:45.220Z,81.23
2022-10-23T17:12:13.479Z,82.70
2022-10-23T17:14:41.620Z,82.40
2022-10-23T17:17:10.039Z,82.84
2022-10-23T17:19:45.659Z,83.23
2022-10-23T17:22:14.880Z,84.18
2022-10-23T17:24:47.418Z,84.77
2022-10-23T17:27:18.166Z,84.16
2022-10-23T17:29:46.151Z,84.01
2022-10-23T17:32:14.190Z,84.55
2022-10-23T17:34:42.144Z,86.61
2022-10-23T17:37:10.188Z,87.06
2022-10-23T17:39:38.145Z,88.29
2022-10-23T17:42:07.478Z,87.96
2022-10-23T17:44:35.379Z,89.05
2022-10-23T17:47:03.399Z,88.36
2022-10-23T17:49:31.312Z,88.03
2022-10-23T17:51:59.369Z,87.61
2022-10-23T17:54:28.465Z,86.70
2022-10-23T17:56:56.567Z,87.70
2022-10-23T17:59:25.845Z,88.46
2022-10-23T18:01:54.872Z,88.71
2022-10-23T18:04:22.936Z,89.07
2022-10-23T18:06:53.527Z,89.21
2022-10-23T18:09:22.293Z,89.42
2022-10-23T18:11:50.754Z,89.80
2022-10-23T18:14:20.361Z,90.36
2022-10-23T18:16:50.785Z,91.13
2022-10-23T18:19:19.654Z,91.10
2022-10-23T18:21:48.107Z,90.46
2022-10-23T18:24:16.646Z,91.58
2022-10-23T18:26:46.051Z,92.25
2022-10-23T18:29:14.588Z,91.34
2022-10-23T18:31:43.828Z,90.10
2022-10-23T18:34:16.665Z,90.94
2022-10-23T18:36:44.576Z,91.40
2022-10-23T18:39:15.314Z,91.76
2022-10-23T18:41:45.302Z,92.04
2022-10-23T18:44:16.599Z,92.11
2022-10-23T18:46:44.547Z,91.45
2022-10-23T18:49:14.220Z,91.50
2022-10-23T18:51:42.428Z,91.57
2022-10-23T18:54:16.209Z,91.73
2022-10-23T18:56:45.001Z,91.89
2022-10-23T18:59:16.937Z,92.05
2022-10-23T19:01:45.333Z,90.83
2022-10-23T19:04:17.611Z,91.40
2022-10-23T19:06:46.124Z,90.82
2022-10-23T19:09:15.159Z,91.09
2022-10-23T19:11:43.994Z,90.40
2022-10-23T19:14:12.303Z,90.46
2022-10-23T19:16:44.423Z,90.88
2022-10-23T19:19:19.711Z,90.85
2022-10-23T19:21:48.885Z,89.20
2022-10-23T19:24:20.977Z,86.38
2022-10-23T19:26:49.454Z,85.47
2022-10-23T19:29:20.297Z,86.36
2022-10-23T19:31:49.871Z,85.12
2022-10-23T19:34:20.419Z,81.88
2022-10-23T19:36:48.600Z,80.99
2022-10-23T19:39:17.298Z,81.47
2022-10-23T19:41:45.291Z,80.92
2022-10-23T19:44:14.926Z,80.23
2022-10-23T19:46:43.066Z,80.36
2022-10-23T19:49:11.653Z,78.54
2022-10-23T19:51:41.160Z,77.94
2022-10-23T19:54:10.574Z,78.35
2022-10-23T19:56:39.148Z,78.09
2022-10-23T19:59:07.096Z,77.32
2022-10-23T20:01:35.805Z,76.44
2022-10-23T20:04:03.945Z,75.62
2022-10-23T20:06:35.430Z,75.03
2022-10-23T20:09:07.995Z,75.19
2022-10-23T20:11:37.713Z,74.99
2022-10-23T20:14:06.152Z,74.10
2022-10-23T20:16:36.371Z,74.26
2022-10-23T20:19:07.276Z,73.78
2022-10-23T20:21:36.997Z,73.83
2022-10-23T20:24:07.112Z,72.43
2022-10-23T20:26:35.244Z,72.46
2022-10-23T20:29:03.140Z,72.30
2022-10-23T20:31:31.112Z,73.04
2022-10-23T20:33:58.977Z,71.87
2022-10-23T20:36:29.476Z,71.55
2022-10-23T20:38:58.799Z,72.36
2022-10-23T20:41:29.017Z,71.85
2022-10-23T20:43:57.446Z,71.02
2022-10-23T20:46:26.446Z,71.26
2022-10-23T20:48:54.798Z,72.08
2022-10-23T20:51:24.923Z,71.87
2022-10-23T20:53:55.307Z,71.85
2022-10-23T20:56:29.935Z,72.26
2022-10-23T20:59:00.256Z,72.05
2022-10-23T21:01:28.861Z,71.80
2022-10-23T21:03:58.133Z,71.54
2022-10-23T21:06:27.209Z,72.40
2022-10-23T21:08:56.622Z,71.29
2022-10-23T21:11:25.294Z,71.41
2022-10-23T21:13:55.889Z,71.50
2022-10-23T21:16:28.667Z,71.91
2022-10-23T21:18:57.252Z,71.93
2022-10-23T21:21:26.639Z,71.87
2022-10-23T21:23:56.897Z,71.40
2022-10-23T21:26:25.656Z,71.65
2022-10-23T21:29:16.945Z,71.40
2022-10-23T21:31:43.976Z,71.91
2022-10-23T21:37:10.848Z,70.71
2022-10-23T21:39:34.369Z,71.36
2022-10-23T21:42:02.335Z,70.65
2022-10-23T21:44:30.172Z,70.89
2022-10-23T21:46:59.458Z,70.25
2022-10-23T21:49:27.404Z,70.27
2022-10-23T21:51:55.775Z,70.24
2022-10-23T21:54:24.066Z,70.64
2022-10-23T21:56:54.842Z,70.77
2022-10-23T21:59:25.915Z,70.48
2022-10-23T22:01:55.911Z,70.33
2022-10-23T22:04:25.327Z,69.87
2022-10-23T22:06:53.869Z,70.81
2022-10-23T22:09:22.736Z,70.31
2022-10-23T22:11:51.498Z,69.89
2022-10-23T22:14:19.658Z,69.71
2022-10-23T22:16:48.379Z,70.14
2022-10-23T22:19:18.448Z,69.48
2022-10-23T22:21:48.976Z,69.38
2022-10-23T22:24:18.475Z,69.28
2022-10-23T22:26:49.263Z,69.80
2022-10-23T22:29:20.221Z,69.61
2022-10-23T22:31:49.814Z,69.15
2022-10-23T22:34:34.829Z,69.26
2022-10-23T22:37:10.930Z,69.80
2022-10-23T22:39:39.295Z,69.27
2022-10-23T22:42:07.196Z,68.99
2022-10-23T22:44:35.034Z,69.04
2022-10-23T22:47:02.929Z,69.50
2022-10-23T22:49:30.866Z,69.67
2022-10-23T22:51:58.795Z,69.41
2022-10-23T22:54:30.428Z,69.31
2022-10-23T22:56:58.574Z,69.36
2022-10-23T22:59:26.476Z,69.33
2022-10-23T23:01:54.386Z,69.90
2022-10-23T23:04:39.017Z,69.92
2022-10-23T23:07:08.202Z,70.28
2022-10-23T23:09:39.414Z,69.73
2022-10-23T23:12:08.606Z,69.85
2022-10-23T23:14:36.553Z,70.04
2022-10-23T23:17:04.711Z,70.47
2022-10-23T23:19:32.563Z,70.18
2022-10-23T23:22:01.009Z,70.51
2022-10-23T23:24:29.138Z,70.95
2022-10-23T23:26:58.441Z,71.00
2022-10-23T23:29:26.926Z,70.49
2022-10-23T23:31:54.940Z,70.86
2022-10-23T23:34:22.808Z,70.93
2022-10-23T23:36:50.852Z,71.06
2022-10-23T23:39:18.979Z,70.84
2022-10-23T23:41:46.816Z,70.86
2022-10-23T23:44:16.117Z,71.34
2022-10-23T23:46:44.006Z,71.38
2022-10-23T23:49:11.918Z,71.60
2022-10-23T23:51:39.787Z,71.76
2022-10-23T23:54:07.716Z,71.66
2022-10-23T23:56:36.213Z,71.93
2022-10-23T23:59:04.173Z,72.23
